sensor_id;sensor_type;location;lat;lon;timestamp;P1;durP1;ratioP1;P2;durP2;ratioP2
14187;SDS011;7175;51.978;5.330;2023-01-01T00:01:53;18.77;;;17.47;;
14187;SDS011;7175;51.978;5.330;2023-01-01T00:04:21;19.07;;;17.67;;
14187;SDS011;7175;51.978;5.330;2023-01-01T00:06:49;17.53;;;16.33;;
14187;SDS011;7175;51.978;5.330;2023-01-01T00:09:17;20.07;;;18.47;;
14187;SDS011;7175;51.978;5.330;2023-01-01T00:12:04;20.10;;;18.70;;
14187;SDS011;7175;51.978;5.330;2023-01-01T00:14:32;20.03;;;18.63;;
14187;SDS011;7175;51.978;5.330;2023-01-01T00:17:00;20.83;;;19.23;;
14187;SDS011;7175;51.978;5.330;2023-01-01T00:19:29;25.03;;;19.23;;
14187;SDS011;7175;51.978;5.330;2023-01-01T00:21:57;18.60;;;17.30;;
14187;SDS011;7175;51.978;5.330;2023-01-01T00:24:35;18.47;;;17.23;;
14187;SDS011;7175;51.978;5.330;2023-01-01T00:27:04;17.57;;;16.37;;
14187;SDS011;7175;51.978;5.330;2023-01-01T00:29:32;17.97;;;16.67;;
14187;SDS011;7175;51.978;5.330;2023-01-01T00:32:01;17.60;;;16.40;;
14187;SDS011;7175;51.978;5.330;2023-01-01T00:34:31;17.70;;;16.50;;
14187;SDS011;7175;51.978;5.330;2023-01-01T00:36:59;18.13;;;16.83;;
14187;SDS011;7175;51.978;5.330;2023-01-01T00:39:27;19.07;;;17.67;;
14187;SDS011;7175;51.978;5.330;2023-01-01T00:41:55;17.83;;;16.57;;
14187;SDS011;7175;51.978;5.330;2023-01-01T00:44:25;18.13;;;16.83;;
14187;SDS011;7175;51.978;5.330;2023-01-01T00:46:53;19.33;;;17.93;;
14187;SDS011;7175;51.978;5.330;2023-01-01T00:49:21;18.50;;;17.20;;
14187;SDS011;7175;51.978;5.330;2023-01-01T00:51:49;18.93;;;17.53;;
14187;SDS011;7175;51.978;5.330;2023-01-01T00:54:17;18.87;;;17.57;;
14187;SDS011;7175;51.978;5.330;2023-01-01T00:56:46;18.77;;;17.47;;
14187;SDS011;7175;51.978;5.330;2023-01-01T00:59:14;17.50;;;16.30;;
14187;SDS011;7175;51.978;5.330;2023-01-01T01:01:43;17.77;;;16.57;;
14187;SDS011;7175;51.978;5.330;2023-01-01T01:04:11;17.80;;;16.40;;
14187;SDS011;7175;51.978;5.330;2023-01-01T01:06:39;18.10;;;16.40;;
14187;SDS011;7175;51.978;5.330;2023-01-01T01:09:07;17.13;;;15.93;;
14187;SDS011;7175;51.978;5.330;2023-01-01T01:11:35;17.07;;;15.87;;
14187;SDS011;7175;51.978;5.330;2023-01-01T01:14:04;17.30;;;16.10;;
14187;SDS011;7175;51.978;5.330;2023-01-01T01:16:32;17.93;;;16.63;;
14187;SDS011;7175;51.978;5.330;2023-01-01T01:19:02;17.20;;;16.00;;
14187;SDS011;7175;51.978;5.330;2023-01-01T01:21:32;17.43;;;16.23;;
14187;SDS011;7175;51.978;5.330;2023-01-01T01:24:01;24.87;;;22.77;;
14187;SDS011;7175;51.978;5.330;2023-01-01T01:26:32;17.60;;;16.40;;
14187;SDS011;7175;51.978;5.330;2023-01-01T01:29:00;17.07;;;15.87;;
14187;SDS011;7175;51.978;5.330;2023-01-01T01:31:30;18.80;;;17.40;;
14187;SDS011;7175;51.978;5.330;2023-01-01T01:34:00;16.77;;;15.57;;
14187;SDS011;7175;51.978;5.330;2023-01-01T01:36:31;17.40;;;16.20;;
14187;SDS011;7175;51.978;5.330;2023-01-01T01:38:59;17.40;;;16.20;;
14187;SDS011;7175;51.978;5.330;2023-01-01T01:41:27;17.90;;;16.60;;
14187;SDS011;7175;51.978;5.330;2023-01-01T01:43:57;17.70;;;16.50;;
14187;SDS011;7175;51.978;5.330;2023-01-01T01:46:27;18.10;;;16.80;;
14187;SDS011;7175;51.978;5.330;2023-01-01T01:48:59;17.27;;;16.07;;
14187;SDS011;7175;51.978;5.330;2023-01-01T01:51:33;17.83;;;16.53;;
14187;SDS011;7175;51.978;5.330;2023-01-01T01:54:04;18.10;;;16.60;;
14187;SDS011;7175;51.978;5.330;2023-01-01T01:56:38;17.80;;;16.60;;
14187;SDS011;7175;51.978;5.330;2023-01-01T01:59:10;17.77;;;16.57;;
14187;SDS011;7175;51.978;5.330;2023-01-01T02:01:38;18.20;;;16.90;;
14187;SDS011;7175;51.978;5.330;2023-01-01T02:04:09;17.80;;;16.50;;
14187;SDS011;7175;51.978;5.330;2023-01-01T02:06:38;17.70;;;16.50;;
14187;SDS011;7175;51.978;5.330;2023-01-01T02:09:06;17.80;;;16.60;;
14187;SDS011;7175;51.978;5.330;2023-01-01T02:11:35;18.20;;;16.90;;
14187;SDS011;7175;51.978;5.330;2023-01-01T02:14:04;19.30;;;17.90;;
14187;SDS011;7175;51.978;5.330;2023-01-01T02:16:35;18.87;;;17.47;;
14187;SDS011;7175;51.978;5.330;2023-01-01T02:19:11;18.40;;;17.10;;
14187;SDS011;7175;51.978;5.330;2023-01-01T02:21:48;18.70;;;17.40;;
14187;SDS011;7175;51.978;5.330;2023-01-01T02:24:38;18.63;;;17.33;;
14187;SDS011;7175;51.978;5.330;2023-01-01T02:27:17;18.17;;;16.87;;
14187;SDS011;7175;51.978;5.330;2023-01-01T02:29:54;17.53;;;16.33;;
14187;SDS011;7175;51.978;5.330;2023-01-01T02:32:26;17.27;;;16.07;;
14187;SDS011;7175;51.978;5.330;2023-01-01T02:34:59;18.17;;;16.87;;
14187;SDS011;7175;51.978;5.330;2023-01-01T02:37:51;18.00;;;16.80;;
14187;SDS011;7175;51.978;5.330;2023-01-01T02:40:22;17.87;;;16.67;;
14187;SDS011;7175;51.978;5.330;2023-01-01T02:42:54;18.20;;;16.90;;
14187;SDS011;7175;51.978;5.330;2023-01-01T02:45:25;18.07;;;16.83;;
14187;SDS011;7175;51.978;5.330;2023-01-01T02:47:53;17.87;;;16.67;;
14187;SDS011;7175;51.978;5.330;2023-01-01T02:50:22;17.43;;;16.23;;
14187;SDS011;7175;51.978;5.330;2023-01-01T02:53:04;17.70;;;16.50;;
14187;SDS011;7175;51.978;5.330;2023-01-01T02:55:55;18.87;;;17.47;;
14187;SDS011;7175;51.978;5.330;2023-01-01T02:58:32;20.47;;;18.90;;
14187;SDS011;7175;51.978;5.330;2023-01-01T03:01:23;18.50;;;17.20;;
14187;SDS011;7175;51.978;5.330;2023-01-01T03:04:00;18.17;;;16.97;;
14187;SDS011;7175;51.978;5.330;2023-01-01T03:06:35;18.77;;;17.47;;
14187;SDS011;7175;51.978;5.330;2023-01-01T03:09:10;19.87;;;18.37;;
14187;SDS011;7175;51.978;5.330;2023-01-01T03:11:45;18.47;;;17.17;;
14187;SDS011;7175;51.978;5.330;2023-01-01T03:14:23;18.70;;;17.40;;
14187;SDS011;7175;51.978;5.330;2023-01-01T03:16:59;18.87;;;17.57;;
14187;SDS011;7175;51.978;5.330;2023-01-01T03:19:32;19.50;;;17.60;;
14187;SDS011;7175;51.978;5.330;2023-01-01T03:22:04;19.93;;;18.53;;
14187;SDS011;7175;51.978;5.330;2023-01-01T03:24:35;17.87;;;16.60;;
14187;SDS011;7175;51.978;5.330;2023-01-01T03:27:08;18.20;;;16.90;;
14187;SDS011;7175;51.978;5.330;2023-01-01T03:29:40;18.97;;;17.67;;
14187;SDS011;7175;51.978;5.330;2023-01-01T03:32:12;22.67;;;18.10;;
14187;SDS011;7175;51.978;5.330;2023-01-01T03:34:46;18.63;;;17.33;;
14187;SDS011;7175;51.978;5.330;2023-01-01T03:37:19;18.60;;;17.30;;
14187;SDS011;7175;51.978;5.330;2023-01-01T03:39:52;17.93;;;16.73;;
14187;SDS011;7175;51.978;5.330;2023-01-01T03:42:25;20.27;;;18.13;;
14187;SDS011;7175;51.978;5.330;2023-01-01T03:44:59;18.47;;;17.17;;
14187;SDS011;7175;51.978;5.330;2023-01-01T03:47:32;18.30;;;17.00;;
14187;SDS011;7175;51.978;5.330;2023-01-01T03:50:00;18.60;;;17.30;;
14187;SDS011;7175;51.978;5.330;2023-01-01T03:52:31;18.90;;;17.60;;
14187;SDS011;7175;51.978;5.330;2023-01-01T03:55:11;18.57;;;17.27;;
14187;SDS011;7175;51.978;5.330;2023-01-01T03:57:47;19.67;;;18.27;;
14187;SDS011;7175;51.978;5.330;2023-01-01T04:00:22;18.70;;;17.40;;
14187;SDS011;7175;51.978;5.330;2023-01-01T04:02:55;18.63;;;17.33;;
14187;SDS011;7175;51.978;5.330;2023-01-01T04:05:27;18.43;;;17.13;;
14187;SDS011;7175;51.978;5.330;2023-01-01T04:07:56;18.47;;;17.20;;
14187;SDS011;7175;51.978;5.330;2023-01-01T04:10:28;19.60;;;18.30;;
14187;SDS011;7175;51.978;5.330;2023-01-01T04:12:58;20.20;;;18.80;;
14187;SDS011;7175;51.978;5.330;2023-01-01T04:15:30;18.50;;;17.20;;
14187;SDS011;7175;51.978;5.330;2023-01-01T04:18:02;19.10;;;17.80;;
14187;SDS011;7175;51.978;5.330;2023-01-01T04:20:31;21.40;;;19.90;;
14187;SDS011;7175;51.978;5.330;2023-01-01T04:22:59;20.53;;;19.13;;
14187;SDS011;7175;51.978;5.330;2023-01-01T04:25:28;22.67;;;21.07;;
14187;SDS011;7175;51.978;5.330;2023-01-01T04:27:57;23.50;;;21.87;;
14187;SDS011;7175;51.978;5.330;2023-01-01T04:30:28;23.37;;;21.77;;
14187;SDS011;7175;51.978;5.330;2023-01-01T04:32:56;23.73;;;22.03;;
14187;SDS011;7175;51.978;5.330;2023-01-01T04:35:26;24.53;;;22.70;;
14187;SDS011;7175;51.978;5.330;2023-01-01T04:37:54;23.50;;;21.80;;
14187;SDS011;7175;51.978;5.330;2023-01-01T04:40:22;23.23;;;21.57;;
14187;SDS011;7175;51.978;5.330;2023-01-01T04:42:52;22.97;;;21.33;;
14187;SDS011;7175;51.978;5.330;2023-01-01T04:45:20;22.73;;;21.10;;
14187;SDS011;7175;51.978;5.330;2023-01-01T04:47:48;22.80;;;21.20;;
14187;SDS011;7175;51.978;5.330;2023-01-01T04:50:16;21.30;;;19.80;;
14187;SDS011;7175;51.978;5.330;2023-01-01T04:52:46;21.07;;;19.57;;
14187;SDS011;7175;51.978;5.330;2023-01-01T04:55:16;20.63;;;19.23;;
14187;SDS011;7175;51.978;5.330;2023-01-01T04:57:45;20.73;;;19.23;;
14187;SDS011;7175;51.978;5.330;2023-01-01T05:00:14;20.60;;;19.20;;
14187;SDS011;7175;51.978;5.330;2023-01-01T05:02:42;20.40;;;19.00;;
14187;SDS011;7175;51.978;5.330;2023-01-01T05:05:11;20.40;;;19.00;;
14187;SDS011;7175;51.978;5.330;2023-01-01T05:07:39;19.63;;;18.23;;
14187;SDS011;7175;51.978;5.330;2023-01-01T05:10:08;20.07;;;18.67;;
14187;SDS011;7175;51.978;5.330;2023-01-01T05:12:36;19.43;;;18.03;;
14187;SDS011;7175;51.978;5.330;2023-01-01T05:15:05;20.70;;;19.20;;
14187;SDS011;7175;51.978;5.330;2023-01-01T05:17:34;20.00;;;18.60;;
14187;SDS011;7175;51.978;5.330;2023-01-01T05:20:02;19.40;;;18.00;;
14187;SDS011;7175;51.978;5.330;2023-01-01T05:22:30;19.93;;;18.53;;
14187;SDS011;7175;51.978;5.330;2023-01-01T05:24:58;19.30;;;17.90;;
14187;SDS011;7175;51.978;5.330;2023-01-01T05:27:27;19.57;;;18.17;;
14187;SDS011;7175;51.978;5.330;2023-01-01T05:29:55;19.40;;;18.00;;
14187;SDS011;7175;51.978;5.330;2023-01-01T05:32:24;18.73;;;17.43;;
14187;SDS011;7175;51.978;5.330;2023-01-01T05:34:52;18.70;;;17.40;;
14187;SDS011;7175;51.978;5.330;2023-01-01T05:37:21;18.67;;;17.37;;
14187;SDS011;7175;51.978;5.330;2023-01-01T05:39:49;18.70;;;17.30;;
14187;SDS011;7175;51.978;5.330;2023-01-01T05:42:17;18.67;;;17.37;;
14187;SDS011;7175;51.978;5.330;2023-01-01T05:44:47;19.80;;;18.40;;
14187;SDS011;7175;51.978;5.330;2023-01-01T05:47:15;19.60;;;18.20;;
14187;SDS011;7175;51.978;5.330;2023-01-01T05:49:44;19.17;;;17.87;;
14187;SDS011;7175;51.978;5.330;2023-01-01T05:52:12;18.67;;;17.37;;
14187;SDS011;7175;51.978;5.330;2023-01-01T05:54:40;18.30;;;17.00;;
14187;SDS011;7175;51.978;5.330;2023-01-01T05:57:08;18.27;;;16.97;;
14187;SDS011;7175;51.978;5.330;2023-01-01T05:59:36;17.80;;;16.60;;
14187;SDS011;7175;51.978;5.330;2023-01-01T06:02:06;18.40;;;17.10;;
14187;SDS011;7175;51.978;5.330;2023-01-01T06:04:34;17.50;;;16.30;;
14187;SDS011;7175;51.978;5.330;2023-01-01T06:07:02;18.70;;;17.40;;
14187;SDS011;7175;51.978;5.330;2023-01-01T06:09:30;17.77;;;16.57;;
14187;SDS011;7175;51.978;5.330;2023-01-01T06:11:58;18.30;;;17.00;;
14187;SDS011;7175;51.978;5.330;2023-01-01T06:14:26;18.70;;;17.30;;
14187;SDS011;7175;51.978;5.330;2023-01-01T06:16:54;18.33;;;17.03;;
14187;SDS011;7175;51.978;5.330;2023-01-01T06:19:23;18.40;;;17.10;;
14187;SDS011;7175;51.978;5.330;2023-01-01T06:21:52;18.40;;;17.10;;
14187;SDS011;7175;51.978;5.330;2023-01-01T06:24:20;18.30;;;17.07;;
14187;SDS011;7175;51.978;5.330;2023-01-01T06:26:48;18.07;;;16.87;;
14187;SDS011;7175;51.978;5.330;2023-01-01T06:29:16;17.73;;;16.53;;
14187;SDS011;7175;51.978;5.330;2023-01-01T06:31:44;17.70;;;16.50;;
14187;SDS011;7175;51.978;5.330;2023-01-01T06:34:12;17.90;;;16.70;;
14187;SDS011;7175;51.978;5.330;2023-01-01T06:36:41;18.00;;;16.80;;
14187;SDS011;7175;51.978;5.330;2023-01-01T06:39:09;18.53;;;17.23;;
14187;SDS011;7175;51.978;5.330;2023-01-01T06:41:37;17.93;;;16.73;;
14187;SDS011;7175;51.978;5.330;2023-01-01T06:44:05;18.20;;;17.00;;
14187;SDS011;7175;51.978;5.330;2023-01-01T06:46:34;17.87;;;16.67;;
14187;SDS011;7175;51.978;5.330;2023-01-01T06:49:03;17.47;;;16.27;;
14187;SDS011;7175;51.978;5.330;2023-01-01T06:51:35;17.43;;;16.23;;
14187;SDS011;7175;51.978;5.330;2023-01-01T06:54:06;17.50;;;16.30;;
14187;SDS011;7175;51.978;5.330;2023-01-01T06:56:35;18.07;;;16.87;;
14187;SDS011;7175;51.978;5.330;2023-01-01T06:59:03;17.90;;;16.70;;
14187;SDS011;7175;51.978;5.330;2023-01-01T07:01:32;18.40;;;17.10;;
14187;SDS011;7175;51.978;5.330;2023-01-01T07:04:03;17.80;;;16.60;;
14187;SDS011;7175;51.978;5.330;2023-01-01T07:06:34;18.03;;;16.73;;
14187;SDS011;7175;51.978;5.330;2023-01-01T07:09:03;17.97;;;16.67;;
14187;SDS011;7175;51.978;5.330;2023-01-01T07:11:33;18.20;;;16.90;;
14187;SDS011;7175;51.978;5.330;2023-01-01T07:14:02;18.30;;;17.00;;
14187;SDS011;7175;51.978;5.330;2023-01-01T07:16:30;18.50;;;17.20;;
14187;SDS011;7175;51.978;5.330;2023-01-01T07:18:58;18.40;;;17.10;;
14187;SDS011;7175;51.978;5.330;2023-01-01T07:21:28;17.80;;;16.53;;
14187;SDS011;7175;51.978;5.330;2023-01-01T07:23:57;18.23;;;16.93;;
14187;SDS011;7175;51.978;5.330;2023-01-01T07:26:27;18.40;;;17.10;;
14187;SDS011;7175;51.978;5.330;2023-01-01T07:28:57;18.27;;;16.97;;
14187;SDS011;7175;51.978;5.330;2023-01-01T07:31:33;18.40;;;17.10;;
14187;SDS011;7175;51.978;5.330;2023-01-01T07:34:03;18.27;;;16.97;;
14187;SDS011;7175;51.978;5.330;2023-01-01T07:36:31;18.07;;;16.77;;
14187;SDS011;7175;51.978;5.330;2023-01-01T07:38:59;18.50;;;17.20;;
14187;SDS011;7175;51.978;5.330;2023-01-01T07:41:28;18.17;;;16.87;;
14187;SDS011;7175;51.978;5.330;2023-01-01T07:43:57;18.57;;;17.27;;
14187;SDS011;7175;51.978;5.330;2023-01-01T07:46:25;19.10;;;17.80;;
14187;SDS011;7175;51.978;5.330;2023-01-01T07:48:54;18.70;;;17.40;;
14187;SDS011;7175;51.978;5.330;2023-01-01T07:51:22;18.40;;;17.10;;
14187;SDS011;7175;51.978;5.330;2023-01-01T07:53:50;18.20;;;16.90;;
14187;SDS011;7175;51.978;5.330;2023-01-01T07:56:18;17.80;;;16.50;;
14187;SDS011;7175;51.978;5.330;2023-01-01T07:58:46;19.33;;;17.93;;
14187;SDS011;7175;51.978;5.330;2023-01-01T08:01:16;17.73;;;16.43;;
14187;SDS011;7175;51.978;5.330;2023-01-01T08:03:49;17.93;;;16.63;;
14187;SDS011;7175;51.978;5.330;2023-01-01T08:06:18;17.83;;;16.53;;
14187;SDS011;7175;51.978;5.330;2023-01-01T08:08:47;18.13;;;16.83;;
14187;SDS011;7175;51.978;5.330;2023-01-01T08:11:16;17.97;;;16.67;;
14187;SDS011;7175;51.978;5.330;2023-01-01T08:13:44;17.97;;;16.67;;
14187;SDS011;7175;51.978;5.330;2023-01-01T08:16:12;17.70;;;16.40;;
14187;SDS011;7175;51.978;5.330;2023-01-01T08:18:41;17.63;;;16.33;;
14187;SDS011;7175;51.978;5.330;2023-01-01T08:21:09;17.27;;;15.97;;
14187;SDS011;7175;51.978;5.330;2023-01-01T08:23:37;18.10;;;16.70;;
14187;SDS011;7175;51.978;5.330;2023-01-01T08:26:06;17.77;;;16.43;;
14187;SDS011;7175;51.978;5.330;2023-01-01T08:28:34;18.07;;;16.67;;
14187;SDS011;7175;51.978;5.330;2023-01-01T08:31:02;17.77;;;16.37;;
14187;SDS011;7175;51.978;5.330;2023-01-01T08:33:30;18.50;;;17.00;;
14187;SDS011;7175;51.978;5.330;2023-01-01T08:36:00;18.10;;;16.70;;
14187;SDS011;7175;51.978;5.330;2023-01-01T08:38:28;17.67;;;16.27;;
14187;SDS011;7175;51.978;5.330;2023-01-01T08:40:56;18.37;;;16.90;;
14187;SDS011;7175;51.978;5.330;2023-01-01T08:43:24;18.43;;;16.93;;
14187;SDS011;7175;51.978;5.330;2023-01-01T08:45:52;22.40;;;18.97;;
14187;SDS011;7175;51.978;5.330;2023-01-01T08:48:20;18.33;;;16.87;;
14187;SDS011;7175;51.978;5.330;2023-01-01T08:50:56;18.50;;;17.00;;
14187;SDS011;7175;51.978;5.330;2023-01-01T08:53:27;18.40;;;17.00;;
14187;SDS011;7175;51.978;5.330;2023-01-01T08:55:56;18.33;;;16.93;;
14187;SDS011;7175;51.978;5.330;2023-01-01T08:58:25;18.00;;;16.60;;
14187;SDS011;7175;51.978;5.330;2023-01-01T09:00:53;18.90;;;17.40;;
14187;SDS011;7175;51.978;5.330;2023-01-01T09:03:22;18.97;;;17.47;;
14187;SDS011;7175;51.978;5.330;2023-01-01T09:05:50;19.30;;;17.80;;
14187;SDS011;7175;51.978;5.330;2023-01-01T09:08:19;19.00;;;17.50;;
14187;SDS011;7175;51.978;5.330;2023-01-01T09:10:48;19.40;;;17.90;;
14187;SDS011;7175;51.978;5.330;2023-01-01T09:13:18;19.03;;;17.53;;
14187;SDS011;7175;51.978;5.330;2023-01-01T09:15:47;19.27;;;17.77;;
14187;SDS011;7175;51.978;5.330;2023-01-01T09:18:15;19.70;;;18.20;;
14187;SDS011;7175;51.978;5.330;2023-01-01T09:20:43;19.50;;;18.00;;
14187;SDS011;7175;51.978;5.330;2023-01-01T09:23:11;21.07;;;19.27;;
14187;SDS011;7175;51.978;5.330;2023-01-01T09:25:39;19.10;;;17.60;;
14187;SDS011;7175;51.978;5.330;2023-01-01T09:28:10;19.33;;;17.83;;
14187;SDS011;7175;51.978;5.330;2023-01-01T09:30:39;19.50;;;17.93;;
14187;SDS011;7175;51.978;5.330;2023-01-01T09:33:08;19.03;;;17.53;;
14187;SDS011;7175;51.978;5.330;2023-01-01T09:35:36;19.87;;;18.27;;
14187;SDS011;7175;51.978;5.330;2023-01-01T09:38:04;19.40;;;17.80;;
14187;SDS011;7175;51.978;5.330;2023-01-01T09:40:35;18.97;;;17.47;;
14187;SDS011;7175;51.978;5.330;2023-01-01T09:43:20;19.07;;;17.57;;
14187;SDS011;7175;51.978;5.330;2023-01-01T09:45:57;19.17;;;17.57;;
14187;SDS011;7175;51.978;5.330;2023-01-01T09:48:28;18.70;;;17.20;;
14187;SDS011;7175;51.978;5.330;2023-01-01T09:50:58;19.00;;;17.50;;
14187;SDS011;7175;51.978;5.330;2023-01-01T09:53:29;19.33;;;17.73;;
14187;SDS011;7175;51.978;5.330;2023-01-01T09:56:01;19.37;;;17.77;;
14187;SDS011;7175;51.978;5.330;2023-01-01T09:58:32;19.03;;;17.43;;
14187;SDS011;7175;51.978;5.330;2023-01-01T10:01:04;19.40;;;17.80;;
14187;SDS011;7175;51.978;5.330;2023-01-01T10:03:43;19.80;;;18.20;;
14187;SDS011;7175;51.978;5.330;2023-01-01T10:06:17;20.00;;;18.40;;
14187;SDS011;7175;51.978;5.330;2023-01-01T10:08:55;20.00;;;18.40;;
14187;SDS011;7175;51.978;5.330;2023-01-01T10:11:35;21.00;;;19.30;;
14187;SDS011;7175;51.978;5.330;2023-01-01T10:14:14;21.90;;;20.00;;
14187;SDS011;7175;51.978;5.330;2023-01-01T10:16:49;20.47;;;18.77;;
14187;SDS011;7175;51.978;5.330;2023-01-01T10:19:23;20.17;;;18.47;;
14187;SDS011;7175;51.978;5.330;2023-01-01T10:21:59;20.93;;;19.23;;
14187;SDS011;7175;51.978;5.330;2023-01-01T10:24:32;20.70;;;19.00;;
14187;SDS011;7175;51.978;5.330;2023-01-01T10:27:06;20.03;;;18.43;;
14187;SDS011;7175;51.978;5.330;2023-01-01T10:29:39;21.53;;;19.63;;
14187;SDS011;7175;51.978;5.330;2023-01-01T10:32:16;19.80;;;18.20;;
14187;SDS011;7175;51.978;5.330;2023-01-01T10:34:46;20.77;;;18.97;;
14187;SDS011;7175;51.978;5.330;2023-01-01T10:37:15;19.70;;;18.10;;
14187;SDS011;7175;51.978;5.330;2023-01-01T10:39:44;19.47;;;17.87;;
14187;SDS011;7175;51.978;5.330;2023-01-01T10:42:14;19.13;;;17.63;;
14187;SDS011;7175;51.978;5.330;2023-01-01T10:44:44;19.80;;;18.20;;
14187;SDS011;7175;51.978;5.330;2023-01-01T10:47:23;19.70;;;18.10;;
14187;SDS011;7175;51.978;5.330;2023-01-01T10:49:54;19.60;;;18.00;;
14187;SDS011;7175;51.978;5.330;2023-01-01T10:52:25;19.80;;;18.20;;
14187;SDS011;7175;51.978;5.330;2023-01-01T10:54:57;19.23;;;17.73;;
14187;SDS011;7175;51.978;5.330;2023-01-01T10:57:30;21.73;;;20.03;;
14187;SDS011;7175;51.978;5.330;2023-01-01T11:00:18;19.53;;;17.93;;
14187;SDS011;7175;51.978;5.330;2023-01-01T11:03:11;20.17;;;18.57;;
14187;SDS011;7175;51.978;5.330;2023-01-01T11:06:03;19.63;;;18.03;;
14187;SDS011;7175;51.978;5.330;2023-01-01T11:08:38;21.40;;;19.70;;
14187;SDS011;7175;51.978;5.330;2023-01-01T11:11:17;20.80;;;19.10;;
14187;SDS011;7175;51.978;5.330;2023-01-01T11:13:51;21.50;;;19.80;;
14187;SDS011;7175;51.978;5.330;2023-01-01T11:16:22;20.20;;;18.60;;
14187;SDS011;7175;51.978;5.330;2023-01-01T11:18:52;21.40;;;19.70;;
14187;SDS011;7175;51.978;5.330;2023-01-01T11:21:28;21.70;;;20.00;;
14187;SDS011;7175;51.978;5.330;2023-01-01T11:24:15;20.57;;;18.90;;
14187;SDS011;7175;51.978;5.330;2023-01-01T11:26:45;20.60;;;18.90;;
14187;SDS011;7175;51.978;5.330;2023-01-01T11:29:23;20.80;;;19.10;;
14187;SDS011;7175;51.978;5.330;2023-01-01T11:31:54;20.67;;;18.97;;
14187;SDS011;7175;51.978;5.330;2023-01-01T11:34:27;21.37;;;19.67;;
14187;SDS011;7175;51.978;5.330;2023-01-01T11:37:14;21.27;;;19.57;;
14187;SDS011;7175;51.978;5.330;2023-01-01T11:39:50;21.40;;;19.70;;
14187;SDS011;7175;51.978;5.330;2023-01-01T11:42:20;21.60;;;19.90;;
14187;SDS011;7175;51.978;5.330;2023-01-01T11:44:50;22.20;;;20.40;;
14187;SDS011;7175;51.978;5.330;2023-01-01T11:47:23;21.67;;;19.87;;
14187;SDS011;7175;51.978;5.330;2023-01-01T11:49:56;22.40;;;20.53;;
14187;SDS011;7175;51.978;5.330;2023-01-01T11:52:36;22.10;;;20.30;;
14187;SDS011;7175;51.978;5.330;2023-01-01T11:55:11;22.07;;;20.27;;
14187;SDS011;7175;51.978;5.330;2023-01-01T11:57:49;23.30;;;21.40;;
14187;SDS011;7175;51.978;5.330;2023-01-01T12:00:23;22.10;;;20.30;;
14187;SDS011;7175;51.978;5.330;2023-01-01T12:02:53;24.20;;;21.97;;
14187;SDS011;7175;51.978;5.330;2023-01-01T12:05:28;22.67;;;20.77;;
14187;SDS011;7175;51.978;5.330;2023-01-01T12:08:08;22.20;;;20.40;;
14187;SDS011;7175;51.978;5.330;2023-01-01T12:10:44;21.30;;;19.50;;
14187;SDS011;7175;51.978;5.330;2023-01-01T12:13:17;21.70;;;19.90;;
14187;SDS011;7175;51.978;5.330;2023-01-01T12:15:50;21.60;;;19.80;;
14187;SDS011;7175;51.978;5.330;2023-01-01T12:18:31;21.37;;;19.57;;
14187;SDS011;7175;51.978;5.330;2023-01-01T12:21:06;21.60;;;19.80;;
14187;SDS011;7175;51.978;5.330;2023-01-01T12:23:41;21.90;;;20.10;;
14187;SDS011;7175;51.978;5.330;2023-01-01T12:26:11;20.70;;;19.00;;
14187;SDS011;7175;51.978;5.330;2023-01-01T12:28:48;19.93;;;18.27;;
14187;SDS011;7175;51.978;5.330;2023-01-01T12:31:39;19.93;;;18.33;;
14187;SDS011;7175;51.978;5.330;2023-01-01T12:34:25;20.33;;;18.63;;
14187;SDS011;7175;51.978;5.330;2023-01-01T12:36:58;20.50;;;18.80;;
14187;SDS011;7175;51.978;5.330;2023-01-01T12:39:40;20.00;;;18.40;;
14187;SDS011;7175;51.978;5.330;2023-01-01T12:42:30;19.70;;;18.10;;
14187;SDS011;7175;51.978;5.330;2023-01-01T12:45:19;20.40;;;18.70;;
14187;SDS011;7175;51.978;5.330;2023-01-01T12:48:00;19.33;;;17.73;;
14187;SDS011;7175;51.978;5.330;2023-01-01T12:50:39;19.10;;;17.57;;
14187;SDS011;7175;51.978;5.330;2023-01-01T12:53:23;19.37;;;17.77;;
14187;SDS011;7175;51.978;5.330;2023-01-01T12:56:13;19.10;;;17.57;;
14187;SDS011;7175;51.978;5.330;2023-01-01T12:58:50;18.97;;;17.47;;
14187;SDS011;7175;51.978;5.330;2023-01-01T13:01:22;19.30;;;17.80;;
14187;SDS011;7175;51.978;5.330;2023-01-01T13:03:59;19.40;;;17.90;;
14187;SDS011;7175;51.978;5.330;2023-01-01T13:06:31;18.80;;;17.30;;
14187;SDS011;7175;51.978;5.330;2023-01-01T13:09:06;20.27;;;18.57;;
14187;SDS011;7175;51.978;5.330;2023-01-01T13:11:37;20.27;;;18.57;;
14187;SDS011;7175;51.978;5.330;2023-01-01T13:14:11;19.50;;;18.00;;
14187;SDS011;7175;51.978;5.330;2023-01-01T13:16:39;19.40;;;17.90;;
14187;SDS011;7175;51.978;5.330;2023-01-01T13:19:21;18.23;;;16.77;;
14187;SDS011;7175;51.978;5.330;2023-01-01T13:21:53;18.23;;;16.83;;
14187;SDS011;7175;51.978;5.330;2023-01-01T13:24:21;18.70;;;17.20;;
14187;SDS011;7175;51.978;5.330;2023-01-01T13:26:51;17.97;;;16.57;;
14187;SDS011;7175;51.978;5.330;2023-01-01T13:29:30;19.83;;;18.10;;
14187;SDS011;7175;51.978;5.330;2023-01-01T13:32:05;18.50;;;17.00;;
14187;SDS011;7175;51.978;5.330;2023-01-01T13:34:58;18.93;;;17.43;;
14187;SDS011;7175;51.978;5.330;2023-01-01T13:37:41;18.47;;;16.97;;
14187;SDS011;7175;51.978;5.330;2023-01-01T13:40:29;18.50;;;17.00;;
14187;SDS011;7175;51.978;5.330;2023-01-01T13:43:03;19.20;;;17.70;;
14187;SDS011;7175;51.978;5.330;2023-01-01T13:45:33;18.43;;;16.93;;
14187;SDS011;7175;51.978;5.330;2023-01-01T13:48:40;18.97;;;17.47;;
14187;SDS011;7175;51.978;5.330;2023-01-01T13:57:35;18.87;;;17.37;;
14187;SDS011;7175;51.978;5.330;2023-01-01T14:00:22;18.50;;;17.00;;
14187;SDS011;7175;51.978;5.330;2023-01-01T14:02:52;19.53;;;18.03;;
14187;SDS011;7175;51.978;5.330;2023-01-01T14:05:27;20.23;;;18.43;;
14187;SDS011;7175;51.978;5.330;2023-01-01T14:07:59;18.83;;;17.33;;
14187;SDS011;7175;51.978;5.330;2023-01-01T14:10:29;18.17;;;16.67;;
14187;SDS011;7175;51.978;5.330;2023-01-01T14:13:01;18.17;;;16.67;;
14187;SDS011;7175;51.978;5.330;2023-01-01T14:15:45;19.03;;;17.53;;
14187;SDS011;7175;51.978;5.330;2023-01-01T14:18:20;18.00;;;16.60;;
14187;SDS011;7175;51.978;5.330;2023-01-01T14:20:51;20.00;;;18.40;;
14187;SDS011;7175;51.978;5.330;2023-01-01T14:23:22;18.90;;;17.40;;
14187;SDS011;7175;51.978;5.330;2023-01-01T14:25:57;19.83;;;18.23;;
14187;SDS011;7175;51.978;5.330;2023-01-01T14:28:28;18.63;;;17.07;;
14187;SDS011;7175;51.978;5.330;2023-01-01T14:30:57;18.63;;;17.13;;
14187;SDS011;7175;51.978;5.330;2023-01-01T14:33:36;18.87;;;17.37;;
14187;SDS011;7175;51.978;5.330;2023-01-01T14:36:12;19.80;;;18.20;;
14187;SDS011;7175;51.978;5.330;2023-01-01T14:38:43;18.77;;;17.27;;
14187;SDS011;7175;51.978;5.330;2023-01-01T14:41:14;19.17;;;17.67;;
14187;SDS011;7175;51.978;5.330;2023-01-01T14:43:46;20.10;;;18.50;;
14187;SDS011;7175;51.978;5.330;2023-01-01T14:46:18;19.00;;;17.50;;
14187;SDS011;7175;51.978;5.330;2023-01-01T14:48:49;20.17;;;18.40;;
14187;SDS011;7175;51.978;5.330;2023-01-01T14:51:19;19.67;;;18.10;;
14187;SDS011;7175;51.978;5.330;2023-01-01T14:53:49;20.50;;;18.90;;
14187;SDS011;7175;51.978;5.330;2023-01-01T14:56:22;20.70;;;19.00;;
14187;SDS011;7175;51.978;5.330;2023-01-01T14:58:53;19.23;;;17.73;;
14187;SDS011;7175;51.978;5.330;2023-01-01T15:01:29;19.80;;;18.20;;
14187;SDS011;7175;51.978;5.330;2023-01-01T15:03:58;20.60;;;19.00;;
14187;SDS011;7175;51.978;5.330;2023-01-01T15:06:27;20.53;;;18.83;;
14187;SDS011;7175;51.978;5.330;2023-01-01T15:08:57;18.90;;;17.40;;